Airfield :
LOGIN :

Register | Disclaimer

   EN    FR    IT 

 










Legend :    VFR   Marginal VFR   IFR   Intensive IFR   Very Intensive IFR
Visi :
Ceiling :
>= 8 km
>= 3000ft
5 to 8 km
1000 to 3000 ft
1500m to 5 km
500 to 1000 ft
800 to 1500m
200 to 500 ft
< 800m
< 200 ft
Symbols :   Thunderstorms  Fog  Heavy snow  Heavy precipitations  Wind > 20 kt
SIGMETs :     Misc.  Thunderstorms  Icing  Turbulence  Mountain Waves  Volcanic Ashes






- Airport Elevation : 443 ft
- IATA code : GNA


UMMG - Grodno

CURRENT METAR :
  • 251130Z 20007G10MPS 4800 -RA OVC005 02/01 Q0997 R17/190065 NOSIG RMK QBB160

EXPIRED METARs :
  • 251100Z 19007G10MPS 6000 -RA OVC006 02/01 Q0997 R17/190065 NOSIG RMK QBB180
  • 251030Z 19007G10MPS 8000 -RA OVC008 02/01 Q0998 R17/190065 NOSIG
  • 251000Z 18007G10MPS 9000 -RA OVC009 02/01 Q0998 R17/190065 NOSIG
  • 250930Z 19007G10MPS 9000 -RA OVC007 02/01 Q0999 R17/190065 NOSIG
  • 250900Z 18006G09MPS 9000 -RA OVC006 02/01 Q1000 R17/190065 NOSIG RMK QBB190
  • 250830Z 19007G10MPS 9000 -RA OVC006 02/M00 Q1000 R17/190065 NOSIG RMK QBB180

TAF TAF UMMG
Valid from the 25 at 09:00 until the 25 at 18:00 UTC


250800Z 2509/2518 18005G10MPS 5000 BR OVC005
TEMPO 2509/2512 19007G12MPS 2000 SNRA BR OVC003
TEMPO 2512/2518 19003G08MPS 3000 -RASN BR OVC007



MET'MAP, your aeronautical weather chart ! - Copyright ORBIFLY December 2007 - Disclaimer

ORBIFLY MET'MAP TEAM :

Programming & Development : Alexandra Zaïnal
Concept & original design : Baudouin d'Aumeries
Assistance for programming : Marc-Olivier Méhu
Technical & hardware support : Manuel Goepfert

Contact : metmap@orbifly.com




SOURCES & CREDITS :

   NOAA